KAL249 ZSPD-PANC
Flight info
| Callsign | KAL249 |
|---|---|
| Flight time | N/A |
| Altitude | 33000 |
| Route | LAM81D LAMEN/N0488F330 A593 SADLI Y590 BEDAR Y591 FUE Y23 KASTE Y81 TASOT Y57 PUTER/N0485F340 A590 PUGAL/N0481F350 A590 HAMND NEELL7 |
| Aircraft | B77L/H-SDE1E2E3FGHIJ2J3J4J5M1RWXY/LB1D1 |
Departure
| Time | N/A |
|---|---|
| Airport | Shanghai Pudong International Airport (ZSPD) |
Arrival
| Time | 2026-05-04 01:59 |
|---|---|
| Airport | Ted Stevens Anchorage International Airport (PANC) |
| Time | Latitude | Longitude | Altitude | Speed | Heading |
|---|---|---|---|---|---|
| 2026-05-03 23:40 | 54.93948 | 177.52030 | 35064 ft | 499 kts | 61° |
| 2026-05-03 23:40 | 54.95656 | 177.57277 | 35061 ft | 499 kts | 61° |
| 2026-05-03 23:41 | 54.99066 | 177.67791 | 35069 ft | 498 kts | 61° |
| 2026-05-03 23:41 | 55.02465 | 177.78308 | 35073 ft | 498 kts | 61° |
| 2026-05-03 23:42 | 55.05851 | 177.88836 | 35080 ft | 498 kts | 61° |
| 2026-05-03 23:42 | 55.09232 | 177.99393 | 35085 ft | 498 kts | 61° |
| 2026-05-03 23:43 | 55.12605 | 178.09971 | 35087 ft | 498 kts | 61° |
| 2026-05-03 23:43 | 55.15969 | 178.20570 | 35090 ft | 499 kts | 61° |
| 2026-05-03 23:44 | 55.19327 | 178.31198 | 35095 ft | 499 kts | 61° |
| 2026-05-03 23:44 | 55.22676 | 178.41839 | 35099 ft | 499 kts | 61° |
| 2026-05-03 23:45 | 55.26020 | 178.52516 | 35105 ft | 499 kts | 61° |
| 2026-05-03 23:45 | 55.29330 | 178.63131 | 35110 ft | 500 kts | 61° |
| 2026-05-03 23:46 | 55.32659 | 178.73847 | 35113 ft | 500 kts | 61° |
| 2026-05-03 23:46 | 55.35990 | 178.84580 | 35112 ft | 500 kts | 61° |
| 2026-05-03 23:47 | 55.39341 | 178.95399 | 35116 ft | 501 kts | 61° |
| 2026-05-03 23:47 | 55.42639 | 179.06097 | 35119 ft | 501 kts | 62° |
| 2026-05-03 23:48 | 55.45947 | 179.16886 | 35124 ft | 501 kts | 62° |
| 2026-05-03 23:48 | 55.49246 | 179.27695 | 35127 ft | 500 kts | 62° |
| 2026-05-03 23:49 | 55.52533 | 179.38512 | 35130 ft | 500 kts | 62° |
| 2026-05-03 23:49 | 55.55806 | 179.49335 | 35135 ft | 500 kts | 62° |
| 2026-05-03 23:50 | 55.58539 | 179.58407 | 35137 ft | 499 kts | 62° |
| 2026-05-03 23:50 | 55.62320 | 179.71021 | 35145 ft | 499 kts | 62° |
| 2026-05-03 23:51 | 55.65558 | 179.81876 | 35147 ft | 499 kts | 62° |
| 2026-05-03 23:51 | 55.68786 | 179.92746 | 35146 ft | 498 kts | 62° |
| 2026-05-03 23:52 | 55.72004 | -179.96366 | 35153 ft | 498 kts | 62° |
| 2026-05-03 23:52 | 55.75211 | -179.85466 | 35153 ft | 498 kts | 62° |
| 2026-05-03 23:53 | 55.77872 | -179.76382 | 35161 ft | 498 kts | 62° |
| 2026-05-03 23:53 | 55.81062 | -179.65443 | 35160 ft | 498 kts | 62° |
| 2026-05-03 23:54 | 55.84241 | -179.54493 | 35163 ft | 498 kts | 62° |
| 2026-05-03 23:54 | 55.87412 | -179.43520 | 35163 ft | 499 kts | 62° |
| 2026-05-03 23:55 | 55.90574 | -179.32524 | 35167 ft | 499 kts | 62° |
| 2026-05-03 23:55 | 55.93728 | -179.21508 | 35168 ft | 499 kts | 62° |
| 2026-05-03 23:56 | 55.96875 | -179.10464 | 35169 ft | 499 kts | 62° |
| 2026-05-03 23:56 | 56.00012 | -178.99396 | 35176 ft | 500 kts | 62° |
| 2026-05-03 23:57 | 56.03142 | -178.88303 | 35178 ft | 500 kts | 62° |
| 2026-05-03 23:57 | 56.06261 | -178.77196 | 35179 ft | 500 kts | 62° |
| 2026-05-03 23:58 | 56.09353 | -178.66133 | 35181 ft | 500 kts | 62° |
| 2026-05-03 23:58 | 56.12455 | -178.54979 | 35184 ft | 500 kts | 63° |
| 2026-05-03 23:59 | 56.15545 | -178.43814 | 35187 ft | 500 kts | 63° |
| 2026-05-03 23:59 | 56.18625 | -178.32631 | 35184 ft | 500 kts | 63° |
| 2026-05-04 00:00 | 56.21696 | -178.21427 | 35188 ft | 499 kts | 63° |
| 2026-05-04 00:00 | 56.24752 | -178.10221 | 35190 ft | 499 kts | 63° |
| 2026-05-04 00:01 | 56.27799 | -177.98995 | 35193 ft | 499 kts | 63° |
| 2026-05-04 00:01 | 56.30835 | -177.87753 | 35198 ft | 499 kts | 63° |
| 2026-05-04 00:02 | 56.33860 | -177.76497 | 35203 ft | 499 kts | 62° |
| 2026-05-04 00:02 | 56.36878 | -177.65211 | 35199 ft | 499 kts | 62° |
| 2026-05-04 00:03 | 56.39884 | -177.53914 | 35196 ft | 500 kts | 62° |
| 2026-05-04 00:03 | 56.42883 | -177.42585 | 35204 ft | 500 kts | 62° |
| 2026-05-04 00:04 | 56.45854 | -177.31307 | 35207 ft | 500 kts | 62° |
| 2026-05-04 00:04 | 56.48837 | -177.19926 | 35215 ft | 501 kts | 62° |
| 2026-05-04 00:05 | 56.51812 | -177.08517 | 35210 ft | 501 kts | 62° |
| 2026-05-04 00:05 | 56.54778 | -176.97085 | 35212 ft | 502 kts | 62° |
| 2026-05-04 00:06 | 56.57734 | -176.85632 | 35211 ft | 502 kts | 62° |
| 2026-05-04 00:06 | 56.60687 | -176.74135 | 35215 ft | 503 kts | 62° |
| 2026-05-04 00:07 | 56.63630 | -176.62616 | 35207 ft | 503 kts | 62° |
| 2026-05-04 00:07 | 56.66562 | -176.51075 | 35219 ft | 503 kts | 62° |
| 2026-05-04 00:08 | 56.69489 | -176.39498 | 35211 ft | 504 kts | 62° |
| 2026-05-04 00:08 | 56.72407 | -176.27898 | 35216 ft | 504 kts | 62° |
| 2026-05-04 00:09 | 56.75317 | -176.16267 | 35219 ft | 505 kts | 62° |
| 2026-05-04 00:09 | 56.78217 | -176.04613 | 35218 ft | 505 kts | 62° |
| 2026-05-04 00:10 | 56.81111 | -175.92929 | 35220 ft | 505 kts | 62° |
| 2026-05-04 00:10 | 56.83991 | -175.81220 | 35220 ft | 506 kts | 62° |
| 2026-05-04 00:11 | 56.86855 | -175.69467 | 35219 ft | 506 kts | 62° |
| 2026-05-04 00:11 | 56.89705 | -175.57702 | 35220 ft | 506 kts | 62° |
| 2026-05-04 00:12 | 56.92547 | -175.45912 | 35222 ft | 506 kts | 62° |
| 2026-05-04 00:12 | 56.95380 | -175.34102 | 35224 ft | 507 kts | 62° |
| 2026-05-04 00:13 | 56.98204 | -175.22263 | 35227 ft | 507 kts | 62° |
| 2026-05-04 00:13 | 57.00998 | -175.10490 | 35227 ft | 507 kts | 62° |
| 2026-05-04 00:14 | 57.03799 | -174.98620 | 35215 ft | 507 kts | 62° |
| 2026-05-04 00:14 | 57.06588 | -174.86733 | 35220 ft | 507 kts | 62° |
| 2026-05-04 00:15 | 57.09366 | -174.74825 | 35224 ft | 506 kts | 62° |
| 2026-05-04 00:15 | 57.12130 | -174.62916 | 35225 ft | 506 kts | 62° |
| 2026-05-04 00:16 | 57.14886 | -174.50977 | 35225 ft | 506 kts | 62° |
| 2026-05-04 00:16 | 57.17628 | -174.39024 | 35228 ft | 507 kts | 62° |
| 2026-05-04 00:17 | 57.20361 | -174.27051 | 35227 ft | 507 kts | 63° |
| 2026-05-04 00:17 | 57.23082 | -174.15058 | 35227 ft | 507 kts | 63° |
| 2026-05-04 00:18 | 57.25793 | -174.03041 | 35226 ft | 507 kts | 63° |
| 2026-05-04 00:18 | 57.28494 | -173.91001 | 35230 ft | 507 kts | 63° |
| 2026-05-04 00:19 | 57.31184 | -173.78945 | 35230 ft | 507 kts | 63° |
| 2026-05-04 00:19 | 57.33864 | -173.66872 | 35228 ft | 507 kts | 62° |
| 2026-05-04 00:20 | 57.36586 | -173.54829 | 35231 ft | 507 kts | 62° |
| 2026-05-04 00:20 | 57.39325 | -173.42789 | 35231 ft | 507 kts | 62° |
| 2026-05-04 00:21 | 57.42050 | -173.30724 | 35230 ft | 507 kts | 62° |
| 2026-05-04 00:21 | 57.44754 | -173.18645 | 35233 ft | 507 kts | 62° |
| 2026-05-04 00:22 | 57.47446 | -173.06536 | 35228 ft | 507 kts | 62° |
| 2026-05-04 00:22 | 57.50125 | -172.94413 | 35231 ft | 507 kts | 62° |
| 2026-05-04 00:23 | 57.52777 | -172.82351 | 35236 ft | 507 kts | 62° |
| 2026-05-04 00:23 | 57.55450 | -172.70120 | 35232 ft | 507 kts | 62° |
| 2026-05-04 00:24 | 57.58076 | -172.58031 | 35230 ft | 507 kts | 62° |
| 2026-05-04 00:24 | 57.60706 | -172.45856 | 35234 ft | 506 kts | 63° |
| 2026-05-04 00:25 | 57.63326 | -172.33654 | 35233 ft | 506 kts | 63° |
| 2026-05-04 00:25 | 57.65932 | -172.21444 | 35237 ft | 506 kts | 63° |
| 2026-05-04 00:26 | 57.68525 | -172.09226 | 35229 ft | 506 kts | 63° |
| 2026-05-04 00:26 | 57.71105 | -171.96991 | 35223 ft | 506 kts | 63° |
| 2026-05-04 00:27 | 57.73672 | -171.84749 | 35228 ft | 505 kts | 64° |
| 2026-05-04 00:27 | 57.76225 | -171.72495 | 35236 ft | 505 kts | 64° |
| 2026-05-04 00:28 | 57.78766 | -171.60232 | 35232 ft | 505 kts | 64° |
| 2026-05-04 00:28 | 57.81296 | -171.47944 | 35232 ft | 505 kts | 64° |
| 2026-05-04 00:29 | 57.83815 | -171.35629 | 35239 ft | 505 kts | 65° |
| 2026-05-04 00:29 | 57.86324 | -171.23294 | 35235 ft | 506 kts | 65° |
| 2026-05-04 00:30 | 57.88820 | -171.10945 | 35237 ft | 506 kts | 65° |
| 2026-05-04 00:30 | 57.91306 | -170.98568 | 35235 ft | 506 kts | 65° |
| 2026-05-04 00:31 | 57.93781 | -170.86172 | 35232 ft | 506 kts | 66° |
| 2026-05-04 00:31 | 57.96254 | -170.73755 | 35233 ft | 506 kts | 65° |
| 2026-05-04 00:32 | 57.98875 | -170.61449 | 35233 ft | 506 kts | 64° |
| 2026-05-04 00:32 | 58.01554 | -170.49189 | 35237 ft | 506 kts | 65° |
| 2026-05-04 00:33 | 58.05524 | -170.30709 | 35233 ft | 507 kts | 65° |
| 2026-05-04 00:34 | 58.08140 | -170.18332 | 35233 ft | 507 kts | 65° |
| 2026-05-04 00:34 | 58.10741 | -170.05936 | 35232 ft | 508 kts | 66° |
| 2026-05-04 00:35 | 58.13334 | -169.93514 | 35234 ft | 508 kts | 66° |
| 2026-05-04 00:35 | 58.15918 | -169.81064 | 35234 ft | 508 kts | 66° |
| 2026-05-04 00:36 | 58.18471 | -169.68685 | 35233 ft | 508 kts | 66° |
| 2026-05-04 00:36 | 58.21034 | -169.56188 | 35235 ft | 509 kts | 67° |
| 2026-05-04 00:37 | 58.23585 | -169.43667 | 35232 ft | 509 kts | 67° |
| 2026-05-04 00:37 | 58.26123 | -169.31131 | 35233 ft | 509 kts | 67° |
| 2026-05-04 00:38 | 58.28651 | -169.18564 | 35233 ft | 509 kts | 68° |
| 2026-05-04 00:38 | 58.31167 | -169.05981 | 35233 ft | 509 kts | 68° |
| 2026-05-04 00:39 | 58.33672 | -168.93371 | 35235 ft | 510 kts | 68° |
| 2026-05-04 00:39 | 58.36167 | -168.80734 | 35235 ft | 510 kts | 68° |
| 2026-05-04 00:40 | 58.38650 | -168.68072 | 35229 ft | 510 kts | 68° |
| 2026-05-04 00:40 | 58.41120 | -168.55400 | 35229 ft | 510 kts | 69° |
| 2026-05-04 00:41 | 58.43580 | -168.42694 | 35227 ft | 510 kts | 69° |
| 2026-05-04 00:41 | 58.46028 | -168.29971 | 35228 ft | 510 kts | 69° |
| 2026-05-04 00:42 | 58.48052 | -168.19386 | 35229 ft | 511 kts | 69° |
| 2026-05-04 00:42 | 58.50478 | -168.06622 | 35228 ft | 511 kts | 69° |
| 2026-05-04 00:43 | 58.52890 | -167.93844 | 35229 ft | 511 kts | 70° |
| 2026-05-04 00:43 | 58.55290 | -167.81047 | 35220 ft | 511 kts | 70° |
| 2026-05-04 00:44 | 58.57679 | -167.68227 | 35215 ft | 511 kts | 70° |
| 2026-05-04 00:44 | 58.60055 | -167.55388 | 35228 ft | 511 kts | 70° |
| 2026-05-04 00:45 | 58.62418 | -167.42528 | 35229 ft | 511 kts | 70° |
| 2026-05-04 00:45 | 58.64770 | -167.29644 | 35226 ft | 511 kts | 71° |
| 2026-05-04 00:46 | 58.67111 | -167.16735 | 35223 ft | 511 kts | 71° |
| 2026-05-04 00:46 | 58.69423 | -167.03908 | 35212 ft | 512 kts | 71° |
| 2026-05-04 00:47 | 58.71751 | -166.90970 | 35213 ft | 512 kts | 71° |
| 2026-05-04 00:47 | 58.74102 | -166.78033 | 35221 ft | 512 kts | 71° |
| 2026-05-04 00:48 | 58.76443 | -166.65073 | 35219 ft | 512 kts | 71° |
| 2026-05-04 00:48 | 58.78767 | -166.52088 | 35216 ft | 513 kts | 71° |
| 2026-05-04 00:49 | 58.81076 | -166.39078 | 35203 ft | 513 kts | 72° |
| 2026-05-04 00:49 | 58.83376 | -166.26036 | 35213 ft | 513 kts | 72° |
| 2026-05-04 00:50 | 58.85662 | -166.12978 | 35209 ft | 514 kts | 72° |
| 2026-05-04 00:50 | 58.87939 | -165.99893 | 35211 ft | 514 kts | 72° |
| 2026-05-04 00:51 | 58.90205 | -165.86784 | 35208 ft | 514 kts | 72° |
| 2026-05-04 00:51 | 58.92467 | -165.73648 | 35207 ft | 515 kts | 73° |
| 2026-05-04 00:52 | 58.94718 | -165.60496 | 35199 ft | 515 kts | 73° |
| 2026-05-04 00:52 | 58.96957 | -165.47310 | 35201 ft | 515 kts | 73° |
| 2026-05-04 00:53 | 58.99183 | -165.34103 | 35200 ft | 515 kts | 73° |
| 2026-05-04 00:53 | 59.01380 | -165.20967 | 35198 ft | 516 kts | 73° |
| 2026-05-04 00:54 | 59.03582 | -165.07707 | 35196 ft | 516 kts | 74° |
| 2026-05-04 00:54 | 59.05769 | -164.94437 | 35190 ft | 516 kts | 74° |
| 2026-05-04 00:55 | 59.07944 | -164.81144 | 35195 ft | 516 kts | 74° |
| 2026-05-04 00:55 | 59.10107 | -164.67824 | 35186 ft | 516 kts | 74° |
| 2026-05-04 00:56 | 59.12256 | -164.54486 | 35190 ft | 517 kts | 75° |
| 2026-05-04 00:56 | 59.14392 | -164.41127 | 35188 ft | 517 kts | 75° |
| 2026-05-04 00:57 | 59.16516 | -164.27743 | 35185 ft | 517 kts | 75° |
| 2026-05-04 00:57 | 59.18628 | -164.14332 | 35180 ft | 518 kts | 75° |
| 2026-05-04 00:58 | 59.20726 | -164.00903 | 35180 ft | 518 kts | 75° |
| 2026-05-04 00:58 | 59.22814 | -163.87434 | 35176 ft | 518 kts | 76° |
| 2026-05-04 00:59 | 59.24888 | -163.73947 | 35176 ft | 519 kts | 76° |
| 2026-05-04 00:59 | 59.26937 | -163.60518 | 35174 ft | 519 kts | 76° |
| 2026-05-04 01:00 | 59.28986 | -163.46978 | 35170 ft | 520 kts | 76° |
| 2026-05-04 01:00 | 59.31023 | -163.33408 | 35167 ft | 520 kts | 76° |
| 2026-05-04 01:01 | 59.33049 | -163.19805 | 35161 ft | 520 kts | 77° |
| 2026-05-04 01:01 | 59.35062 | -163.06178 | 35162 ft | 521 kts | 77° |
| 2026-05-04 01:02 | 59.37061 | -162.92532 | 35158 ft | 521 kts | 77° |
| 2026-05-04 01:02 | 59.39049 | -162.78847 | 35159 ft | 522 kts | 77° |
| 2026-05-04 01:03 | 59.41022 | -162.65149 | 35156 ft | 522 kts | 77° |
| 2026-05-04 01:03 | 59.42984 | -162.51415 | 35151 ft | 522 kts | 78° |
| 2026-05-04 01:04 | 59.44934 | -162.37657 | 35146 ft | 523 kts | 78° |
| 2026-05-04 01:04 | 59.47001 | -162.24026 | 35147 ft | 525 kts | 75° |
| 2026-05-04 01:05 | 59.49333 | -162.10317 | 35144 ft | 526 kts | 75° |
| 2026-05-04 01:05 | 59.51658 | -161.96767 | 35156 ft | 526 kts | 75° |
| 2026-05-04 01:06 | 59.53958 | -161.83084 | 35161 ft | 526 kts | 75° |
| 2026-05-04 01:06 | 59.56227 | -161.69350 | 35173 ft | 527 kts | 76° |
| 2026-05-04 01:07 | 59.58478 | -161.55586 | 35158 ft | 528 kts | 76° |
| 2026-05-04 01:07 | 59.60719 | -161.41785 | 35175 ft | 528 kts | 76° |
| 2026-05-04 01:08 | 59.62948 | -161.27963 | 35179 ft | 528 kts | 76° |
| 2026-05-04 01:08 | 59.65167 | -161.14106 | 35172 ft | 529 kts | 77° |
| 2026-05-04 01:09 | 59.67371 | -161.00217 | 35190 ft | 530 kts | 77° |
| 2026-05-04 01:09 | 59.69566 | -160.86283 | 35191 ft | 530 kts | 77° |
| 2026-05-04 01:10 | 59.71747 | -160.72325 | 35186 ft | 531 kts | 77° |
| 2026-05-04 01:10 | 59.73917 | -160.58319 | 35182 ft | 532 kts | 78° |
| 2026-05-04 01:11 | 59.76074 | -160.44284 | 35186 ft | 533 kts | 78° |
| 2026-05-04 01:11 | 59.78221 | -160.30200 | 35179 ft | 534 kts | 78° |
| 2026-05-04 01:12 | 59.80357 | -160.16071 | 35166 ft | 535 kts | 78° |
| 2026-05-04 01:12 | 59.82482 | -160.01897 | 35161 ft | 536 kts | 79° |
| 2026-05-04 01:13 | 59.84597 | -159.87668 | 35159 ft | 537 kts | 79° |
| 2026-05-04 01:13 | 59.86702 | -159.73383 | 35140 ft | 539 kts | 79° |
| 2026-05-04 01:14 | 59.88799 | -159.59031 | 35135 ft | 540 kts | 79° |
| 2026-05-04 01:14 | 59.90883 | -159.44640 | 35111 ft | 541 kts | 79° |
| 2026-05-04 01:15 | 59.92943 | -159.30291 | 35103 ft | 543 kts | 80° |
| 2026-05-04 01:15 | 59.95001 | -159.15823 | 35077 ft | 543 kts | 80° |
| 2026-05-04 01:16 | 59.97052 | -159.01297 | 35089 ft | 544 kts | 80° |
| 2026-05-04 01:16 | 59.99090 | -158.86716 | 35093 ft | 546 kts | 81° |
| 2026-05-04 01:17 | 60.01117 | -158.72063 | 35086 ft | 548 kts | 81° |
| 2026-05-04 01:17 | 60.03135 | -158.57352 | 35078 ft | 549 kts | 81° |
| 2026-05-04 01:18 | 60.05140 | -158.42610 | 35079 ft | 549 kts | 81° |
| 2026-05-04 01:18 | 60.07130 | -158.27835 | 35075 ft | 550 kts | 81° |
| 2026-05-04 01:19 | 60.09105 | -158.13024 | 35084 ft | 551 kts | 81° |
| 2026-05-04 01:19 | 60.11067 | -157.98169 | 35079 ft | 552 kts | 82° |
| 2026-05-04 01:20 | 60.13015 | -157.83281 | 35078 ft | 552 kts | 82° |
| 2026-05-04 01:20 | 60.14945 | -157.68377 | 35071 ft | 552 kts | 82° |
| 2026-05-04 01:21 | 60.16859 | -157.53456 | 35070 ft | 552 kts | 82° |
| 2026-05-04 01:21 | 60.18756 | -157.38516 | 35075 ft | 552 kts | 82° |
| 2026-05-04 01:22 | 60.20635 | -157.23567 | 35075 ft | 551 kts | 83° |
| 2026-05-04 01:22 | 60.22496 | -157.08620 | 35081 ft | 551 kts | 83° |
| 2026-05-04 01:23 | 60.24341 | -156.93648 | 35077 ft | 551 kts | 83° |
| 2026-05-04 01:23 | 60.26167 | -156.78663 | 35081 ft | 551 kts | 84° |
| 2026-05-04 01:24 | 60.27964 | -156.63772 | 35084 ft | 551 kts | 84° |
| 2026-05-04 01:24 | 60.29757 | -156.48757 | 35085 ft | 550 kts | 84° |
| 2026-05-04 01:25 | 60.31530 | -156.33751 | 35084 ft | 550 kts | 85° |
| 2026-05-04 01:25 | 60.33288 | -156.18708 | 35083 ft | 551 kts | 85° |
| 2026-05-04 01:26 | 60.35029 | -156.03654 | 35103 ft | 551 kts | 85° |
| 2026-05-04 01:26 | 60.36754 | -155.88567 | 35099 ft | 551 kts | 85° |
| 2026-05-04 01:27 | 60.38461 | -155.73474 | 35094 ft | 551 kts | 86° |
| 2026-05-04 01:27 | 60.40151 | -155.58372 | 35097 ft | 551 kts | 86° |
| 2026-05-04 01:28 | 60.41826 | -155.43221 | 35094 ft | 552 kts | 86° |
| 2026-05-04 01:28 | 60.43484 | -155.28059 | 35084 ft | 552 kts | 86° |
| 2026-05-04 01:29 | 60.45128 | -155.12867 | 35093 ft | 552 kts | 86° |
| 2026-05-04 01:29 | 60.46741 | -154.97863 | 35083 ft | 532 kts | 87° |
| 2026-05-04 01:29 | 60.47516 | -154.90618 | 34885 ft | 521 kts | 88° |
| 2026-05-04 01:30 | 60.48266 | -154.83471 | 34465 ft | 517 kts | 88° |
| 2026-05-04 01:30 | 60.49007 | -154.76363 | 33993 ft | 513 kts | 89° |
| 2026-05-04 01:30 | 60.49737 | -154.69327 | 33492 ft | 508 kts | 89° |
| 2026-05-04 01:30 | 60.50519 | -154.62350 | 33044 ft | 506 kts | 86° |
| 2026-05-04 01:31 | 60.51410 | -154.55464 | 32623 ft | 503 kts | 85° |
| 2026-05-04 01:31 | 60.52345 | -154.48652 | 32168 ft | 498 kts | 84° |
| 2026-05-04 01:31 | 60.52964 | -154.44200 | 31933 ft | 494 kts | 84° |
| 2026-05-04 01:31 | 60.53888 | -154.37509 | 31487 ft | 490 kts | 84° |
| 2026-05-04 01:32 | 60.54791 | -154.30876 | 31061 ft | 485 kts | 84° |
| 2026-05-04 01:32 | 60.55671 | -154.24295 | 30640 ft | 480 kts | 84° |
| 2026-05-04 01:32 | 60.56524 | -154.17783 | 30256 ft | 475 kts | 84° |
| 2026-05-04 01:32 | 60.57364 | -154.11315 | 29780 ft | 471 kts | 84° |
| 2026-05-04 01:33 | 60.58191 | -154.04909 | 29356 ft | 466 kts | 84° |
| 2026-05-04 01:33 | 60.59009 | -153.98549 | 28951 ft | 463 kts | 84° |
| 2026-05-04 01:33 | 60.59817 | -153.92230 | 28498 ft | 460 kts | 84° |
| 2026-05-04 01:33 | 60.60617 | -153.85953 | 28122 ft | 455 kts | 84° |
| 2026-05-04 01:34 | 60.61406 | -153.79753 | 27706 ft | 451 kts | 84° |
| 2026-05-04 01:34 | 60.62188 | -153.73593 | 27317 ft | 447 kts | 84° |
| 2026-05-04 01:34 | 60.62958 | -153.67496 | 26914 ft | 443 kts | 84° |
| 2026-05-04 01:34 | 60.63721 | -153.61447 | 26546 ft | 439 kts | 84° |
| 2026-05-04 01:35 | 60.64472 | -153.55426 | 26142 ft | 437 kts | 84° |
| 2026-05-04 01:35 | 60.65213 | -153.49453 | 25788 ft | 433 kts | 84° |
| 2026-05-04 01:35 | 60.65950 | -153.43502 | 25387 ft | 432 kts | 84° |
| 2026-05-04 01:35 | 60.66682 | -153.37587 | 25020 ft | 429 kts | 83° |
| 2026-05-04 01:36 | 60.67408 | -153.31707 | 24682 ft | 427 kts | 83° |
| 2026-05-04 01:36 | 60.68129 | -153.25842 | 24305 ft | 425 kts | 83° |
| 2026-05-04 01:36 | 60.68841 | -153.20007 | 23930 ft | 423 kts | 83° |
| 2026-05-04 01:36 | 60.69546 | -153.14191 | 23539 ft | 421 kts | 83° |
| 2026-05-04 01:37 | 60.70248 | -153.08395 | 23121 ft | 419 kts | 83° |
| 2026-05-04 01:37 | 60.70944 | -153.02634 | 22740 ft | 417 kts | 83° |
| 2026-05-04 01:37 | 60.71635 | -152.96896 | 22354 ft | 415 kts | 83° |
| 2026-05-04 01:37 | 60.72320 | -152.91193 | 21991 ft | 411 kts | 83° |
| 2026-05-04 01:38 | 60.72986 | -152.85632 | 21625 ft | 407 kts | 83° |
| 2026-05-04 01:38 | 60.73652 | -152.80030 | 21269 ft | 403 kts | 83° |
| 2026-05-04 01:38 | 60.74308 | -152.74483 | 20883 ft | 401 kts | 83° |
| 2026-05-04 01:38 | 60.74963 | -152.68928 | 20456 ft | 404 kts | 83° |
| 2026-05-04 01:39 | 60.75622 | -152.63303 | 20009 ft | 409 kts | 83° |
| 2026-05-04 01:39 | 60.76283 | -152.57628 | 19520 ft | 411 kts | 82° |
| 2026-05-04 01:39 | 60.76945 | -152.51959 | 19019 ft | 409 kts | 82° |
| 2026-05-04 01:39 | 60.77605 | -152.46321 | 18596 ft | 405 kts | 82° |
| 2026-05-04 01:40 | 60.78256 | -152.40747 | 18142 ft | 402 kts | 82° |
| 2026-05-04 01:40 | 60.78899 | -152.35177 | 17617 ft | 401 kts | 82° |
| 2026-05-04 01:40 | 60.79538 | -152.29613 | 17091 ft | 401 kts | 82° |
| 2026-05-04 01:40 | 60.80169 | -152.24118 | 16597 ft | 389 kts | 82° |
| 2026-05-04 01:41 | 60.80778 | -152.18783 | 16159 ft | 377 kts | 82° |
| 2026-05-04 01:41 | 60.81360 | -152.13567 | 15784 ft | 373 kts | 83° |
| 2026-05-04 01:41 | 60.81883 | -152.08414 | 15435 ft | 367 kts | 83° |
| 2026-05-04 01:41 | 60.82380 | -152.03317 | 15116 ft | 362 kts | 84° |
| 2026-05-04 01:42 | 60.82865 | -151.98279 | 14793 ft | 358 kts | 83° |
| 2026-05-04 01:42 | 60.83347 | -151.93281 | 14457 ft | 357 kts | 83° |
| 2026-05-04 01:42 | 60.83828 | -151.88291 | 14131 ft | 356 kts | 83° |
| 2026-05-04 01:42 | 60.84309 | -151.83332 | 13777 ft | 353 kts | 83° |
| 2026-05-04 01:43 | 60.84784 | -151.78426 | 13417 ft | 349 kts | 83° |
| 2026-05-04 01:43 | 60.85251 | -151.73585 | 13076 ft | 344 kts | 83° |
| 2026-05-04 01:43 | 60.85710 | -151.68821 | 12755 ft | 338 kts | 83° |
| 2026-05-04 01:43 | 60.86159 | -151.64135 | 12443 ft | 334 kts | 83° |
| 2026-05-04 01:44 | 60.86605 | -151.59470 | 12139 ft | 333 kts | 83° |
| 2026-05-04 01:44 | 60.87049 | -151.54797 | 11824 ft | 334 kts | 83° |
| 2026-05-04 01:44 | 60.87492 | -151.50111 | 11535 ft | 334 kts | 82° |
| 2026-05-04 01:44 | 60.87987 | -151.45471 | 11210 ft | 333 kts | 76° |
| 2026-05-04 01:45 | 60.88777 | -151.41016 | 10911 ft | 332 kts | 70° |
| 2026-05-04 01:45 | 60.89676 | -151.36698 | 10590 ft | 326 kts | 69° |
| 2026-05-04 01:45 | 60.91417 | -151.28294 | 9987 ft | 313 kts | 70° |
| 2026-05-04 01:46 | 60.92229 | -151.24220 | 9743 ft | 303 kts | 71° |
| 2026-05-04 01:46 | 60.92991 | -151.20338 | 9398 ft | 285 kts | 71° |
| 2026-05-04 01:46 | 60.93715 | -151.16608 | 9127 ft | 278 kts | 71° |
| 2026-05-04 01:46 | 60.94423 | -151.12942 | 8873 ft | 273 kts | 71° |
| 2026-05-04 01:47 | 60.95143 | -151.09367 | 8612 ft | 268 kts | 64° |
| 2026-05-04 01:47 | 60.96318 | -151.06416 | 8376 ft | 269 kts | 43° |
| 2026-05-04 01:47 | 60.97741 | -151.03834 | 8124 ft | 276 kts | 43° |
| 2026-05-04 01:47 | 60.99178 | -151.01205 | 7878 ft | 276 kts | 43° |
| 2026-05-04 01:48 | 61.00586 | -150.98612 | 7626 ft | 272 kts | 43° |
| 2026-05-04 01:48 | 61.01998 | -150.95998 | 7357 ft | 267 kts | 44° |
| 2026-05-04 01:48 | 61.03361 | -150.93460 | 7098 ft | 262 kts | 44° |
| 2026-05-04 01:48 | 61.04689 | -150.90978 | 6873 ft | 261 kts | 44° |
| 2026-05-04 01:49 | 61.06047 | -150.88433 | 6636 ft | 260 kts | 44° |
| 2026-05-04 01:49 | 61.07379 | -150.85929 | 6390 ft | 259 kts | 44° |
| 2026-05-04 01:49 | 61.08711 | -150.83424 | 6133 ft | 258 kts | 44° |
| 2026-05-04 01:49 | 61.10037 | -150.80927 | 5888 ft | 257 kts | 44° |
| 2026-05-04 01:50 | 61.11356 | -150.78436 | 5645 ft | 256 kts | 44° |
| 2026-05-04 01:50 | 61.12659 | -150.75973 | 5407 ft | 251 kts | 44° |
| 2026-05-04 01:50 | 61.13929 | -150.73572 | 5173 ft | 243 kts | 45° |
| 2026-05-04 01:50 | 61.14889 | -150.70900 | 4921 ft | 225 kts | 71° |
| 2026-05-04 01:51 | 61.15355 | -150.67930 | 4762 ft | 217 kts | 72° |
| 2026-05-04 01:51 | 61.15840 | -150.64996 | 4537 ft | 207 kts | 72° |
| 2026-05-04 01:51 | 61.16292 | -150.62283 | 4362 ft | 196 kts | 72° |
| 2026-05-04 01:51 | 61.16626 | -150.59679 | 4202 ft | 181 kts | 84° |
| 2026-05-04 01:52 | 61.16690 | -150.57185 | 4046 ft | 168 kts | 89° |
| 2026-05-04 01:52 | 61.16706 | -150.54853 | 3873 ft | 158 kts | 89° |
| 2026-05-04 01:52 | 61.16715 | -150.52574 | 3746 ft | 159 kts | 89° |
| 2026-05-04 01:52 | 61.16720 | -150.50265 | 3608 ft | 161 kts | 89° |
| 2026-05-04 01:53 | 61.16724 | -150.47949 | 3459 ft | 161 kts | 89° |
| 2026-05-04 01:53 | 61.16727 | -150.45623 | 3312 ft | 162 kts | 89° |
| 2026-05-04 01:53 | 61.16730 | -150.43300 | 3157 ft | 160 kts | 89° |
| 2026-05-04 01:53 | 61.16732 | -150.41043 | 3078 ft | 154 kts | 89° |
| 2026-05-04 01:54 | 61.16735 | -150.38878 | 3056 ft | 147 kts | 89° |
| 2026-05-04 01:54 | 61.16737 | -150.36813 | 3055 ft | 141 kts | 89° |
| 2026-05-04 01:54 | 61.16740 | -150.34766 | 3032 ft | 142 kts | 89° |
| 2026-05-04 01:54 | 61.16743 | -150.32719 | 2968 ft | 144 kts | 89° |
| 2026-05-04 01:55 | 61.16745 | -150.30632 | 2756 ft | 144 kts | 89° |
| 2026-05-04 01:55 | 61.16748 | -150.28580 | 2569 ft | 141 kts | 89° |
| 2026-05-04 01:55 | 61.16751 | -150.26545 | 2401 ft | 143 kts | 88° |
| 2026-05-04 01:55 | 61.16753 | -150.24471 | 2200 ft | 144 kts | 89° |
| 2026-05-04 01:56 | 61.16756 | -150.22414 | 2000 ft | 142 kts | 88° |
| 2026-05-04 01:56 | 61.16758 | -150.20394 | 1788 ft | 139 kts | 88° |
| 2026-05-04 01:56 | 61.16761 | -150.18388 | 1587 ft | 140 kts | 89° |
| 2026-05-04 01:56 | 61.16764 | -150.16370 | 1402 ft | 141 kts | 89° |
| 2026-05-04 01:57 | 61.16766 | -150.14336 | 1186 ft | 141 kts | 89° |
| 2026-05-04 01:57 | 61.16769 | -150.12320 | 970 ft | 142 kts | 89° |
| 2026-05-04 01:57 | 61.16773 | -150.10275 | 760 ft | 143 kts | 91° |
| 2026-05-04 01:57 | 61.16777 | -150.08200 | 551 ft | 144 kts | 92° |
| 2026-05-04 01:58 | 61.16780 | -150.06136 | 355 ft | 143 kts | 92° |
| 2026-05-04 01:58 | 61.16783 | -150.04077 | 170 ft | 144 kts | 92° |
| 2026-05-04 01:58 | 61.16784 | -150.02169 | 144 ft | 119 kts | 91° |
| 2026-05-04 01:58 | 61.16785 | -150.00768 | 138 ft | 75 kts | 90° |
| 2026-05-04 01:59 | 61.16786 | -150.00015 | 134 ft | 34 kts | 87° |
| 2026-05-04 01:59 | 61.16840 | -149.99581 | 127 ft | 23 kts | 66° |
| 2026-05-04 01:59 | 61.16895 | -149.99414 | 123 ft | 11 kts | 40° |
| 2026-05-04 01:59 | 61.16962 | -149.99324 | 127 ft | 11 kts | 32° |
| 2026-05-04 02:00 | 61.17027 | -149.99227 | 121 ft | 12 kts | 37° |
| 2026-05-04 02:00 | 61.17092 | -149.99123 | 119 ft | 10 kts | 37° |
| 2026-05-04 02:00 | 61.17149 | -149.99088 | 117 ft | 9 kts | 354° |
| 2026-05-04 02:00 | 61.17209 | -149.99114 | 113 ft | 9 kts | 344° |
| 2026-05-04 02:01 | 61.17269 | -149.99142 | 113 ft | 9 kts | 1° |
| 2026-05-04 02:01 | 61.17309 | -149.99055 | 111 ft | 9 kts | 65° |
| 2026-05-04 02:01 | 61.17332 | -149.98936 | 112 ft | 9 kts | 66° |
| 2026-05-04 02:01 | 61.17384 | -149.98891 | 111 ft | 9 kts | 343° |
| 2026-05-04 02:02 | 61.17423 | -149.98893 | 111 ft | 2 kts | 36° |
| 2026-05-04 02:02 | 61.17433 | -149.98877 | 110 ft | 2 kts | 37° |
| 2026-05-04 02:02 | 61.17443 | -149.98861 | 109 ft | 2 kts | 37° |
| 2026-05-04 02:02 | 61.17453 | -149.98848 | 110 ft | 2 kts | 29° |
| 2026-05-04 02:03 | 61.17464 | -149.98835 | 110 ft | 2 kts | 29° |
| 2026-05-04 02:03 | 61.17475 | -149.98823 | 109 ft | 2 kts | 28° |
| 2026-05-04 02:03 | 61.17486 | -149.98810 | 109 ft | 2 kts | 28° |
| 2026-05-04 02:03 | 61.17497 | -149.98798 | 107 ft | 2 kts | 28° |
| 2026-05-04 02:04 | 61.17508 | -149.98786 | 110 ft | 2 kts | 28° |
| 2026-05-04 02:04 | 61.17519 | -149.98774 | 109 ft | 1 kts | 28° |
| 2026-05-04 02:04 | 61.17522 | -149.98771 | 109 ft | 0 kts | 28° |